createdAt,value
2023-03-08T00:01:12.505Z,99666.16
2023-03-08T00:03:39.026Z,99661.19
2023-03-08T00:06:06.645Z,99659.72
2023-03-08T00:08:33.048Z,99646.53
2023-03-08T00:10:59.583Z,99648.56
2023-03-08T00:13:26.205Z,99658.31
2023-03-08T00:15:53.067Z,99651.91
2023-03-08T00:18:19.402Z,99660.81
2023-03-08T00:20:45.819Z,99664.69
2023-03-08T00:23:12.182Z,99668.84
2023-03-08T00:25:38.553Z,99662.47
2023-03-08T00:28:05.037Z,99655.63
2023-03-08T00:30:31.447Z,99653.16
2023-03-08T00:32:57.773Z,99659.19
2023-03-08T00:35:24.239Z,99658.94
2023-03-08T00:37:50.624Z,99662.84
2023-03-08T00:40:17.229Z,99661.88
2023-03-08T00:42:43.861Z,99667.75
2023-03-08T00:45:11.035Z,99664.66
2023-03-08T00:47:38.118Z,99662.03
2023-03-08T00:50:04.912Z,99660.78
2023-03-08T00:52:31.228Z,99661.56
2023-03-08T00:54:57.553Z,99646.44
2023-03-08T00:57:23.968Z,99645.13
2023-03-08T00:59:50.319Z,99637.75
2023-03-08T01:02:16.756Z,99634.84
2023-03-08T01:04:43.130Z,99627.63
2023-03-08T01:07:09.618Z,99629.25
2023-03-08T01:09:36.016Z,99628.66
2023-03-08T01:12:02.358Z,99628.44
2023-03-08T01:14:30.022Z,99629.94
2023-03-08T01:16:56.460Z,99626.88
2023-03-08T01:19:22.897Z,99614.78
2023-03-08T01:21:49.328Z,99614.53
2023-03-08T01:24:15.694Z,99610.03
2023-03-08T01:26:42.103Z,99614.16
2023-03-08T01:29:08.413Z,99604.66
2023-03-08T01:31:34.944Z,99608.03
2023-03-08T01:34:01.497Z,99603.47
2023-03-08T01:36:28.351Z,99602.00
2023-03-08T01:38:54.948Z,99603.47
2023-03-08T01:41:30.387Z,99598.56
2023-03-08T01:43:57.677Z,99611.06
2023-03-08T01:46:36.630Z,99603.72
2023-03-08T01:49:05.956Z,99597.50
2023-03-08T01:51:44.349Z,99587.19
2023-03-08T01:54:15.620Z,99581.84
2023-03-08T01:56:44.839Z,99577.25
2023-03-08T01:59:12.225Z,99568.84
2023-03-08T02:01:39.235Z,99568.25
2023-03-08T02:04:06.628Z,99569.13
2023-03-08T02:06:33.644Z,99555.31
2023-03-08T02:09:04.323Z,99554.56
2023-03-08T02:11:32.546Z,99542.16
2023-03-08T02:13:59.221Z,99543.81
2023-03-08T02:16:25.709Z,99549.59
2023-03-08T02:18:55.512Z,99543.94
2023-03-08T02:21:22.770Z,99541.03
2023-03-08T02:23:49.255Z,99541.44
2023-03-08T02:26:16.651Z,99532.91
2023-03-08T02:28:43.693Z,99530.66
2023-03-08T02:31:11.985Z,99530.25
2023-03-08T02:33:38.632Z,99531.56
2023-03-08T02:36:08.246Z,99542.25
2023-03-08T02:38:35.313Z,99537.59
2023-03-08T02:41:01.668Z,99535.91
2023-03-08T02:43:28.677Z,99531.22
2023-03-08T02:45:55.024Z,99524.22
2023-03-08T02:48:21.525Z,99514.78
2023-03-08T02:50:47.921Z,99519.25
2023-03-08T02:53:14.295Z,99515.69
2023-03-08T02:55:40.637Z,99516.66
2023-03-08T02:58:09.634Z,99500.59
2023-03-08T03:00:36.946Z,99514.97
2023-03-08T03:03:03.424Z,99502.28
2023-03-08T03:05:29.864Z,99505.56
2023-03-08T03:07:58.467Z,99500.97
2023-03-08T03:10:25.213Z,99499.03
2023-03-08T03:12:51.623Z,99499.63
2023-03-08T03:15:18.103Z,99499.25
2023-03-08T03:17:44.565Z,99493.06
2023-03-08T03:20:11.568Z,99483.53
2023-03-08T03:22:38.095Z,99484.81
2023-03-08T03:25:05.605Z,99474.91
2023-03-08T03:27:32.015Z,99463.38
2023-03-08T03:29:58.641Z,99462.19
2023-03-08T03:32:25.108Z,99464.72
2023-03-08T03:34:51.744Z,99464.19
2023-03-08T03:37:18.198Z,99455.56
2023-03-08T03:39:44.852Z,99446.50
2023-03-08T03:42:11.457Z,99447.69
2023-03-08T03:44:38.102Z,99450.97
2023-03-08T03:47:05.880Z,99448.88
2023-03-08T03:49:32.364Z,99445.19
2023-03-08T03:51:58.955Z,99449.69
2023-03-08T03:54:25.361Z,99455.41
2023-03-08T03:56:51.834Z,99449.94
2023-03-08T03:59:18.215Z,99445.59
2023-03-08T04:01:44.635Z,99442.78
2023-03-08T04:04:11.372Z,99445.59
2023-03-08T04:06:38.921Z,99445.41
2023-03-08T04:09:08.251Z,99436.09
2023-03-08T04:11:37.383Z,99428.34
2023-03-08T04:14:04.771Z,99424.63
2023-03-08T04:16:34.022Z,99424.72
2023-03-08T04:19:04.542Z,99438.31
2023-03-08T04:21:31.426Z,99429.69
2023-03-08T04:24:00.500Z,99416.91
2023-03-08T04:26:27.244Z,99408.44
2023-03-08T04:28:53.702Z,99411.53
2023-03-08T04:31:25.708Z,99400.22
2023-03-08T04:33:53.059Z,99400.44
2023-03-08T04:36:20.282Z,99397.19
2023-03-08T04:38:47.594Z,99394.28
2023-03-08T04:41:15.624Z,99385.94
2023-03-08T04:43:50.782Z,99385.13
2023-03-08T04:46:19.428Z,99378.59
2023-03-08T04:48:46.173Z,99369.59
2023-03-08T04:51:14.187Z,99362.75
2023-03-08T04:53:41.780Z,99358.06
2023-03-08T04:56:09.172Z,99354.13
2023-03-08T04:58:37.303Z,99342.44
2023-03-08T05:01:15.675Z,99342.75
2023-03-08T05:03:42.742Z,99335.84
2023-03-08T05:06:10.584Z,99327.13
2023-03-08T05:08:37.089Z,99328.41
2023-03-08T05:11:04.671Z,99327.44
2023-03-08T05:13:34.000Z,99331.66
2023-03-08T05:16:00.564Z,99331.28
2023-03-08T05:18:27.018Z,99325.47
2023-03-08T05:20:55.466Z,99319.53
2023-03-08T05:23:22.445Z,99309.97
2023-03-08T05:25:52.159Z,99300.50
2023-03-08T05:28:18.516Z,99305.44
2023-03-08T05:30:44.878Z,99298.06
2023-03-08T05:33:11.351Z,99290.63
2023-03-08T05:35:37.823Z,99293.44
2023-03-08T05:38:04.259Z,99276.09
2023-03-08T05:40:30.898Z,99281.81
2023-03-08T05:42:57.219Z,99263.56
2023-03-08T05:45:23.677Z,99264.56
2023-03-08T05:47:50.046Z,99257.03
2023-03-08T05:50:16.730Z,99255.50
2023-03-08T05:52:43.131Z,99250.59
2023-03-08T05:55:09.798Z,99246.16
2023-03-08T05:57:36.646Z,99244.06
2023-03-08T06:00:04.715Z,99242.56
2023-03-08T06:02:31.113Z,99229.41
2023-03-08T06:04:57.497Z,99216.84
2023-03-08T06:07:24.004Z,99217.31
2023-03-08T06:09:51.779Z,99211.34
2023-03-08T06:12:18.229Z,99197.53
2023-03-08T06:14:44.729Z,99200.66
2023-03-08T06:17:11.075Z,99201.00
2023-03-08T06:19:37.388Z,99181.56
2023-03-08T06:22:03.868Z,99178.53
2023-03-08T06:24:30.821Z,99166.56
2023-03-08T06:26:57.244Z,99162.38
2023-03-08T06:29:23.697Z,99146.78
2023-03-08T06:31:50.069Z,99132.91
2023-03-08T06:34:16.430Z,99134.88
2023-03-08T06:36:43.168Z,99136.97
2023-03-08T06:39:09.930Z,99134.66
2023-03-08T06:41:36.371Z,99129.41
2023-03-08T06:44:02.996Z,99127.19
2023-03-08T06:46:29.384Z,99121.84
2023-03-08T06:48:55.953Z,99107.41
2023-03-08T06:51:22.417Z,99102.41
2023-03-08T06:53:48.794Z,99091.47
2023-03-08T06:56:16.711Z,99088.44
2023-03-08T06:58:43.303Z,99082.72
2023-03-08T07:01:10.896Z,99074.81
2023-03-08T07:03:37.709Z,99078.09
2023-03-08T07:06:09.901Z,99067.81
2023-03-08T07:08:38.138Z,99049.22
2023-03-08T07:11:04.768Z,99054.69
2023-03-08T07:13:31.307Z,99058.06
2023-03-08T07:15:57.798Z,99049.91
2023-03-08T07:18:24.787Z,99043.06
2023-03-08T07:20:57.498Z,99057.13
2023-03-08T07:23:23.999Z,99062.03
2023-03-08T07:25:50.546Z,99043.16
2023-03-08T07:28:16.873Z,99046.09
2023-03-08T07:30:48.606Z,99044.00
2023-03-08T07:33:15.543Z,99043.75
2023-03-08T07:35:41.942Z,99051.31
2023-03-08T07:38:08.473Z,99046.66
2023-03-08T07:40:34.912Z,99039.22
2023-03-08T07:43:01.284Z,99033.03
2023-03-08T07:45:27.730Z,99021.06
2023-03-08T07:47:54.676Z,99025.47
2023-03-08T07:50:22.027Z,99026.28
2023-03-08T07:52:49.077Z,99016.72
2023-03-08T07:55:16.000Z,99016.38
2023-03-08T07:57:42.426Z,99015.19
2023-03-08T08:00:10.899Z,99013.44
2023-03-08T08:02:37.344Z,99008.31
2023-03-08T08:05:04.640Z,99008.00
2023-03-08T08:07:31.173Z,99012.75
2023-03-08T08:09:57.564Z,99007.06
2023-03-08T08:12:23.924Z,99003.53
2023-03-08T08:14:52.378Z,98998.56
2023-03-08T08:17:19.600Z,98992.50
2023-03-08T08:19:46.456Z,98989.84
2023-03-08T08:22:12.806Z,98973.75
2023-03-08T08:24:39.288Z,98972.13
2023-03-08T08:27:06.056Z,98981.66
2023-03-08T08:29:32.825Z,98981.88
2023-03-08T08:31:59.212Z,98965.94
2023-03-08T08:34:25.847Z,98962.91
2023-03-08T08:36:52.184Z,98959.03
2023-03-08T08:39:18.512Z,98946.69
2023-03-08T08:41:44.863Z,98945.84
2023-03-08T08:44:11.206Z,98951.59
2023-03-08T08:46:38.189Z,98948.75
2023-03-08T08:49:07.525Z,98935.34
2023-03-08T08:51:33.965Z,98940.28
2023-03-08T08:54:00.613Z,98935.59
2023-03-08T08:56:28.881Z,98917.50
2023-03-08T08:59:00.943Z,98921.69
2023-03-08T09:01:30.870Z,98928.06
2023-03-08T09:03:57.842Z,98923.16
2023-03-08T09:06:25.778Z,98916.94
2023-03-08T09:08:55.185Z,98919.22
2023-03-08T09:11:22.974Z,98904.91
2023-03-08T09:13:49.582Z,98907.53
2023-03-08T09:16:22.875Z,98913.06
2023-03-08T09:18:50.028Z,98908.19
2023-03-08T09:21:16.863Z,98903.63
2023-03-08T09:23:43.600Z,98901.28
2023-03-08T09:26:10.912Z,98895.19
2023-03-08T09:28:37.478Z,98903.06
2023-03-08T09:31:14.791Z,98900.88
2023-03-08T09:33:44.151Z,98889.16
2023-03-08T09:36:11.048Z,98887.72
2023-03-08T09:38:37.749Z,98892.75
2023-03-08T09:41:19.302Z,98890.44
2023-03-08T09:43:59.936Z,98892.66
2023-03-08T09:46:35.996Z,98876.00
2023-03-08T09:49:07.087Z,98880.53
2023-03-08T09:51:38.400Z,98867.19
2023-03-08T09:54:13.981Z,98864.31
2023-03-08T09:56:48.071Z,98850.75
2023-03-08T09:59:44.560Z,98862.63
2023-03-08T10:02:32.683Z,98860.78
2023-03-08T10:05:13.756Z,98857.78
2023-03-08T10:07:56.644Z,98859.69
2023-03-08T10:10:47.071Z,98868.00
2023-03-08T10:13:25.572Z,98868.97
2023-03-08T10:15:57.720Z,98870.13
2023-03-08T10:18:31.771Z,98868.00
2023-03-08T10:21:00.963Z,98868.97
2023-03-08T10:23:32.392Z,98867.03
2023-03-08T10:26:00.316Z,98857.63
2023-03-08T10:28:27.776Z,98857.34
2023-03-08T10:30:59.950Z,98842.81
2023-03-08T10:33:32.831Z,98839.47
2023-03-08T10:36:17.986Z,98841.25
2023-03-08T10:38:55.212Z,98846.63
2023-03-08T10:41:21.890Z,98851.00
2023-03-08T10:43:53.925Z,98844.69
2023-03-08T10:46:22.896Z,98849.44
2023-03-08T10:48:49.515Z,98841.63
2023-03-08T10:51:21.504Z,98843.06
2023-03-08T10:53:56.168Z,98857.25
2023-03-08T10:56:31.194Z,98846.31
2023-03-08T10:58:58.492Z,98846.16
2023-03-08T11:01:31.090Z,98835.22
2023-03-08T11:04:16.238Z,98834.22
2023-03-08T11:06:43.189Z,98831.97
2023-03-08T11:09:29.727Z,98828.91
2023-03-08T11:12:00.579Z,98830.75
2023-03-08T11:14:28.434Z,98835.41
2023-03-08T11:17:17.982Z,98818.72
2023-03-08T11:20:11.143Z,98810.16
2023-03-08T11:22:59.015Z,98809.16
2023-03-08T11:25:57.301Z,98811.03
2023-03-08T11:28:48.597Z,98803.03
2023-03-08T11:31:18.079Z,98797.97
2023-03-08T11:34:21.574Z,98791.59
2023-03-08T11:36:56.749Z,98787.25
2023-03-08T11:39:28.941Z,98789.84
2023-03-08T11:42:16.513Z,98795.16
2023-03-08T11:45:19.419Z,98791.34
2023-03-08T11:47:57.372Z,98797.13
2023-03-08T11:50:28.673Z,98792.88
2023-03-08T11:53:13.334Z,98784.38
2023-03-08T11:55:52.113Z,98771.31
2023-03-08T11:58:28.566Z,98771.59
2023-03-08T12:01:01.269Z,98783.25
2023-03-08T12:03:36.074Z,98779.63
2023-03-08T12:06:29.093Z,98786.63
2023-03-08T12:09:08.750Z,98776.75
2023-03-08T12:11:41.780Z,98779.28
2023-03-08T12:14:22.926Z,98779.03
2023-03-08T12:17:02.495Z,98772.03
2023-03-08T12:19:42.034Z,98767.75
2023-03-08T12:22:39.183Z,98773.34
2023-03-08T12:25:15.710Z,98762.75
2023-03-08T12:28:11.805Z,98753.16
2023-03-08T12:31:24.869Z,98760.53
2023-03-08T12:33:54.069Z,98755.97
2023-03-08T12:36:24.308Z,98750.38
2023-03-08T12:38:56.593Z,98748.69
2023-03-08T12:41:28.990Z,98750.56
2023-03-08T12:44:22.609Z,98738.53
2023-03-08T12:47:02.452Z,98742.06
2023-03-08T12:49:33.916Z,98738.84
2023-03-08T12:52:06.812Z,98735.63
2023-03-08T12:54:35.394Z,98730.59
2023-03-08T12:57:13.905Z,98731.94
2023-03-08T12:59:41.215Z,98725.78
2023-03-08T13:02:30.971Z,98736.25
2023-03-08T13:05:15.656Z,98728.94
2023-03-08T13:08:08.857Z,98722.19
2023-03-08T13:10:52.195Z,98708.97
2023-03-08T13:13:38.060Z,98722.97
2023-03-08T13:16:19.308Z,98728.13
2023-03-08T13:18:48.601Z,98727.34
2023-03-08T13:21:14.976Z,98712.81
2023-03-08T13:23:58.443Z,98722.72
2023-03-08T13:26:54.357Z,98727.88
2023-03-08T13:29:21.417Z,98717.69
2023-03-08T13:31:48.469Z,98715.53
2023-03-08T13:34:23.893Z,98701.81
2023-03-08T13:36:50.271Z,98694.56
2023-03-08T13:39:25.294Z,98694.56
2023-03-08T13:41:52.180Z,98676.75
2023-03-08T13:44:23.119Z,98676.25
2023-03-08T13:46:54.091Z,98687.31
2023-03-08T13:49:25.686Z,98689.75
2023-03-08T13:51:55.619Z,98687.56
2023-03-08T13:54:29.629Z,98687.59
2023-03-08T13:56:59.872Z,98688.13
2023-03-08T13:59:27.169Z,98684.94
2023-03-08T14:01:54.458Z,98662.84
2023-03-08T14:04:24.073Z,98666.38
2023-03-08T14:07:19.980Z,98681.47
2023-03-08T14:09:46.339Z,98676.88
2023-03-08T14:12:16.924Z,98676.91
2023-03-08T14:14:46.640Z,98673.06
2023-03-08T14:17:24.959Z,98663.06
2023-03-08T14:20:16.683Z,98658.00
2023-03-08T14:22:47.659Z,98651.56
2023-03-08T14:25:40.348Z,98654.50
2023-03-08T14:28:39.030Z,98655.88
2023-03-08T14:31:27.405Z,98642.91
2023-03-08T14:33:57.170Z,98651.53
2023-03-08T14:36:24.148Z,98652.63
2023-03-08T14:38:50.774Z,98646.69
2023-03-08T14:41:17.391Z,98648.88
2023-03-08T14:43:49.407Z,98645.63
2023-03-08T14:46:20.326Z,98639.94
2023-03-08T14:48:57.356Z,98638.03
2023-03-08T14:51:42.658Z,98634.00
2023-03-08T14:54:32.766Z,98631.59
2023-03-08T14:57:15.235Z,98635.13
2023-03-08T14:59:42.666Z,98633.78
2023-03-08T15:02:13.681Z,98641.81
2023-03-08T15:04:40.907Z,98641.31
2023-03-08T15:07:08.461Z,98632.69
2023-03-08T15:09:34.994Z,98633.72
2023-03-08T15:12:01.714Z,98641.81
2023-03-08T15:14:30.506Z,98641.81
2023-03-08T15:16:58.130Z,98622.16
2023-03-08T15:19:24.829Z,98628.34
2023-03-08T15:21:51.464Z,98623.50
2023-03-08T15:24:18.993Z,98614.38
2023-03-08T15:26:45.913Z,98616.25
2023-03-08T15:29:26.656Z,98620.00
2023-03-08T15:31:53.491Z,98621.06
2023-03-08T15:34:20.171Z,98617.56
2023-03-08T15:36:48.245Z,98617.84
2023-03-08T15:39:14.847Z,98611.94
2023-03-08T15:41:41.272Z,98618.38
2023-03-08T15:44:08.065Z,98618.34
2023-03-08T15:46:34.660Z,98614.84
2023-03-08T15:49:01.013Z,98622.91
2023-03-08T15:51:35.864Z,98614.84
2023-03-08T15:54:04.239Z,98623.66
2023-03-08T15:56:30.658Z,98623.97
2023-03-08T15:58:57.131Z,98623.94
2023-03-08T16:01:26.182Z,98633.06
2023-03-08T16:03:54.194Z,98630.44
2023-03-08T16:06:21.123Z,98637.47
2023-03-08T16:08:47.508Z,98637.47
2023-03-08T16:11:17.361Z,98652.50
2023-03-08T16:13:44.075Z,98653.59
2023-03-08T16:16:10.868Z,98652.00
2023-03-08T16:18:40.259Z,98643.66
2023-03-08T16:21:08.987Z,98642.59
2023-03-08T16:23:36.214Z,98650.09
2023-03-08T16:26:15.103Z,98649.31
2023-03-08T16:28:43.545Z,98653.91
2023-03-08T16:31:09.935Z,98639.91
2023-03-08T16:33:36.659Z,98657.13
2023-03-08T16:36:03.830Z,98651.44
2023-03-08T16:38:30.302Z,98653.56
2023-03-08T16:41:11.493Z,98651.72
2023-03-08T16:43:46.267Z,98649.28
2023-03-08T16:46:16.098Z,98641.19
2023-03-08T16:48:42.656Z,98637.44
2023-03-08T16:51:13.832Z,98629.63
2023-03-08T16:53:40.353Z,98630.41
2023-03-08T16:56:07.069Z,98630.94
2023-03-08T16:58:33.408Z,98626.59
2023-03-08T17:00:59.800Z,98622.84
2023-03-08T17:03:26.361Z,98629.78
2023-03-08T17:05:52.838Z,98620.09
2023-03-08T17:08:19.372Z,98623.06
2023-03-08T17:10:45.775Z,98623.38
2023-03-08T17:13:12.550Z,98622.59
2023-03-08T17:15:44.207Z,98615.31
2023-03-08T17:18:10.850Z,98613.44
2023-03-08T17:20:41.817Z,98625.56
2023-03-08T17:23:10.400Z,98614.28
2023-03-08T17:25:40.996Z,98608.63
2023-03-08T17:28:08.788Z,98602.44
2023-03-08T17:30:35.861Z,98594.38
2023-03-08T17:33:02.368Z,98603.47
2023-03-08T17:35:28.848Z,98606.16
2023-03-08T17:37:55.280Z,98605.63
2023-03-08T17:40:21.948Z,98609.38
2023-03-08T17:42:48.362Z,98620.38
2023-03-08T17:45:16.048Z,98626.88
2023-03-08T17:47:42.500Z,98624.44
2023-03-08T17:50:11.282Z,98622.28
2023-03-08T17:52:37.612Z,98621.19
2023-03-08T17:55:04.292Z,98625.00
2023-03-08T17:57:30.985Z,98619.38
2023-03-08T17:59:57.400Z,98621.75
2023-03-08T18:02:24.263Z,98622.28
2023-03-08T18:04:51.101Z,98623.91
2023-03-08T18:07:18.807Z,98618.56
2023-03-08T18:09:45.944Z,98619.84
2023-03-08T18:12:12.479Z,98623.09
2023-03-08T18:14:40.128Z,98622.28
2023-03-08T18:17:07.777Z,98622.22
2023-03-08T18:19:34.264Z,98623.06
2023-03-08T18:22:00.746Z,98616.13
2023-03-08T18:24:27.636Z,98612.59
2023-03-08T18:26:54.111Z,98618.75
2023-03-08T18:29:20.492Z,98619.56
2023-03-08T18:31:47.060Z,98616.09
2023-03-08T18:34:13.419Z,98632.53
2023-03-08T18:36:40.801Z,98629.00
2023-03-08T18:39:12.030Z,98610.16
2023-03-08T18:41:38.903Z,98636.81
2023-03-08T18:44:05.911Z,98654.00
2023-03-08T18:46:33.566Z,98641.31
2023-03-08T18:49:03.331Z,98623.03
2023-03-08T18:51:31.734Z,98610.41
2023-03-08T18:53:58.876Z,98617.16
2023-03-08T18:56:26.126Z,98614.22
2023-03-08T18:58:58.392Z,98620.94
2023-03-08T19:01:25.322Z,98622.59
2023-03-08T19:03:52.087Z,98626.09
2023-03-08T19:06:18.523Z,98615.31
2023-03-08T19:08:44.890Z,98619.06
2023-03-08T19:11:13.493Z,98620.72
2023-03-08T19:13:41.122Z,98628.53
2023-03-08T19:16:21.057Z,98628.00
2023-03-08T19:18:48.781Z,98624.19
2023-03-08T19:21:17.620Z,98624.53
2023-03-08T19:23:44.277Z,98625.59
2023-03-08T19:26:46.120Z,98619.94
2023-03-08T19:29:30.339Z,98620.16
2023-03-08T19:32:05.440Z,98607.78
2023-03-08T19:34:34.616Z,98614.25
2023-03-08T19:37:01.621Z,98606.47
2023-03-08T19:39:33.393Z,98602.38
2023-03-08T19:42:12.350Z,98607.81
2023-03-08T19:44:38.753Z,98607.53
2023-03-08T19:47:05.413Z,98607.28
2023-03-08T19:49:35.560Z,98600.81
2023-03-08T19:52:05.202Z,98609.94
2023-03-08T19:54:31.772Z,98602.47
2023-03-08T19:56:59.014Z,98606.78
2023-03-08T19:59:25.789Z,98603.28
2023-03-08T20:01:54.471Z,98606.50
2023-03-08T20:04:21.910Z,98603.25
2023-03-08T20:06:49.380Z,98599.78
2023-03-08T20:09:21.294Z,98604.09
2023-03-08T20:11:50.500Z,98597.06
2023-03-08T20:14:16.869Z,98600.84
2023-03-08T20:16:43.268Z,98598.69
2023-03-08T20:19:09.694Z,98589.03
2023-03-08T20:21:37.706Z,98580.13
2023-03-08T20:24:04.162Z,98574.19
2023-03-08T20:26:33.065Z,98577.94
2023-03-08T20:29:00.450Z,98581.44
2023-03-08T20:31:29.106Z,98586.56
2023-03-08T20:33:55.797Z,98584.69
2023-03-08T20:36:23.631Z,98586.34
2023-03-08T20:38:50.021Z,98587.94
2023-03-08T20:41:18.992Z,98590.09
2023-03-08T20:43:47.180Z,98586.31
2023-03-08T20:46:16.306Z,98590.38
2023-03-08T20:48:44.791Z,98586.88
2023-03-08T20:51:14.201Z,98590.34
2023-03-08T20:53:41.980Z,98597.09
2023-03-08T20:56:11.683Z,98595.47
2023-03-08T20:58:38.469Z,98595.78
2023-03-08T21:01:17.858Z,98590.09
2023-03-08T21:03:45.624Z,98596.56
2023-03-08T21:06:14.747Z,98597.13
2023-03-08T21:08:41.223Z,98600.88
2023-03-08T21:11:07.910Z,98592.25
2023-03-08T21:13:34.331Z,98577.16
2023-03-08T21:16:06.144Z,98577.19
2023-03-08T21:18:32.659Z,98571.25
2023-03-08T21:20:59.582Z,98569.91
2023-03-08T21:23:26.419Z,98574.47
2023-03-08T21:25:53.630Z,98565.88
2023-03-08T21:28:21.587Z,98566.41
2023-03-08T21:30:48.735Z,98569.09
2023-03-08T21:33:15.396Z,98561.06
2023-03-08T21:35:42.708Z,98559.16
2023-03-08T21:38:09.450Z,98551.38
2023-03-08T21:40:41.882Z,98557.28
2023-03-08T21:43:08.858Z,98539.78
2023-03-08T21:45:42.515Z,98549.19
2023-03-08T21:48:09.771Z,98541.66
2023-03-08T21:50:40.262Z,98534.66
2023-03-08T21:53:08.213Z,98541.13
2023-03-08T21:55:38.267Z,98536.03
2023-03-08T21:58:05.687Z,98526.34
2023-03-08T22:00:32.352Z,98518.00
2023-03-08T22:02:59.279Z,98512.63
2023-03-08T22:05:25.907Z,98517.97
2023-03-08T22:07:52.389Z,98501.31
2023-03-08T22:10:20.275Z,98493.75
2023-03-08T22:12:47.394Z,98491.09
2023-03-08T22:15:15.898Z,98478.69
2023-03-08T22:17:43.094Z,98465.53
2023-03-08T22:20:11.042Z,98471.16
2023-03-08T22:22:38.489Z,98464.44
2023-03-08T22:25:06.540Z,98469.56
2023-03-08T22:27:33.389Z,98471.19
2023-03-08T22:29:59.916Z,98476.00
2023-03-08T22:32:26.644Z,98462.56
2023-03-08T22:34:53.059Z,98471.19
2023-03-08T22:37:19.489Z,98472.78
2023-03-08T22:39:45.965Z,98456.09
2023-03-08T22:42:12.410Z,98453.38
2023-03-08T22:44:38.813Z,98448.56
2023-03-08T22:47:05.461Z,98438.34
2023-03-08T22:49:31.903Z,98443.97
2023-03-08T22:51:58.265Z,98460.41
2023-03-08T22:54:24.850Z,98459.84
2023-03-08T22:56:51.358Z,98458.53
2023-03-08T22:59:17.773Z,98456.09
2023-03-08T23:01:44.280Z,98458.22
2023-03-08T23:04:13.255Z,98453.41
2023-03-08T23:06:40.003Z,98455.00
2023-03-08T23:09:10.078Z,98453.41
2023-03-08T23:11:37.370Z,98454.44
2023-03-08T23:14:04.486Z,98446.13
2023-03-08T23:16:31.128Z,98440.47
2023-03-08T23:18:57.786Z,98436.69
2023-03-08T23:21:26.216Z,98429.13
2023-03-08T23:23:52.710Z,98418.91
2023-03-08T23:26:23.839Z,98418.66
2023-03-08T23:28:50.484Z,98416.22
2023-03-08T23:31:20.421Z,98412.44
2023-03-08T23:33:47.517Z,98416.75
2023-03-08T23:36:16.497Z,98412.97
2023-03-08T23:38:43.910Z,98408.94
2023-03-08T23:41:11.975Z,98410.81
2023-03-08T23:43:39.361Z,98422.16
2023-03-08T23:46:14.611Z,98419.44
2023-03-08T23:48:41.768Z,98415.66
2023-03-08T23:51:11.902Z,98410.28
2023-03-08T23:53:38.703Z,98426.97
2023-03-08T23:56:05.872Z,98418.88
2023-03-08T23:58:32.887Z,98422.13
